x

Buoy E01 - Central Maine Shelf (44032) Wave Buoy

5:04 - Sun 28th May 2017 All times are EDT. -4 hours from GMT.

  • Sig Wave height 2.6ft
  • Peak Period 8s
  • Wind
    2mph, 2mph gusts
  • Sea Temp 45°f
  • Luft Temp 45°f
  • Sea Pressure 1014.4mb
  • Buoy E01 - Central Maine Shelf
  • Buoy E01 - Central Maine Shelf

More Historic Weather Station data

Upgrade to MSW Pro to gain access to the past 30 days of data for over 8000 Wavebouys and Weather Stations around the globe.

Join Pro

Comparision Forecast

View Surf forecast
   
So 05/28 5:04 2.5ft 8s 2 2 mph 1014.4mb 45f 45f
4:04 2.5ft 11s 2 2 mph 1014mb 44f 45f
3:04 2.5ft 6s 4 4 mph 1013.6mb 44f 44f
2:04 2.5ft 8s 2 2 mph 1013.8mb 44f 45f
1:04 3ft 8s 2 2 mph 1014.1mb 45f 45f
12:04 2.5ft 8s 2 2 mph 1014.3mb 44f 44f
Sa 05/27 11:04 3.5ft 8s 4 7 mph 1014.2mb 45f 45f
10:04 3.5ft 8s 7 7 mph 1014.1mb 45f 44f
9:04 3.5ft 8s 7 7 mph 1013.8mb 45f 45f
8:04 4.5ft 8s 7 7 mph 1013.2mb 45f 45f
7:04 3.5ft 8s 7 9 mph 1013mb 45f 46f
6:04 4.5ft 11s 9 11 mph 1012.7mb 44f 46f
5:04 3.5ft 11s 13 16 mph 1011.9mb 45f 45f
4:04 3ft 11s 11 11 mph 1011.4mb 45f 45f
3:04 3.5ft 11s 7 9 mph 1011.2mb 45f 45f
2:04 3.5ft 11s 9 11 mph 1011mb 45f 46f
1:04 3.5ft 11s 9 9 mph 1011.1mb 45f 47f
12:04 5ft 11s 4 7 mph 1010.9mb 45f 47f
11:04 3.5ft 11s 2 4 mph 1010.3mb 45f 47f
10:04 4ft 8s 2 9 mph 1010.1mb 45f 48f
9:04 5ft 8s 4 4 mph 1009.9mb 45f 47f
8:04 4ft 8s 7 7 mph 1009.7mb 45f 47f
7:04 4.5ft 11s 11 13 mph 1009mb 45f 47f
6:04 3.5ft 8s 9 11 mph 1008mb 45f 47f
5:04 3.5ft 11s 7 11 mph 1007.4mb 45f 46f
4:04 4ft 11s 4 7 mph 1007mb 45f 46f
3:04 3.5ft 11s 9 11 mph 1006.6mb 45f 46f
2:04 3.5ft 11s 9 11 mph 1006.1mb 45f 47f
1:04 3.5ft 11s 9 13 mph 1005.7mb 45f 47f
12:04 3.5ft 11s 7 9 mph 1005.4mb 45f 46f
Fr 05/26 11:04 4ft 8s 11 13 mph 1004.9mb 45f 47f
10:04 4.5ft 8s 7 9 mph 1004.5mb 45f 47f
9:04 5ft 8s 9 11 mph 1004mb 45f 47f
8:04 5.5ft 8s 11 13 mph 1003.2mb 45f 48f
7:04 6ft 8s 11 11 mph 1002.2mb 45f 47f
6:04 5.5ft 8s 4 7 mph 1001.5mb 45f 46f
5:04 6.5ft 8s 7 9 mph 1000.7mb 44f 46f
4:04 6.5ft 8s 13 16 mph 999.7mb 44f 47f
3:04 7ft 8s 16 18 mph 999.1mb 43f 46f
2:04 7ft 8s 20 25 mph 998.4mb 43f 45f
12:04 8ft 8s 20 25 mph 998.3mb 44f 44f
11:04 8ft 8s 25 29 mph 998.5mb 44f 44f
10:04 7ft 8s 25 29 mph 998.3mb 44f 44f
9:04 9.5ft 8s 22 27 mph 998.7mb 44f 44f
8:04 9ft 8s 25 29 mph 999.3mb 45f 44f
7:04 8ft 8s 25 29 mph 1000.2mb 44f 44f
6:04 7.5ft 8s 22 25 mph 1001.5mb 44f 44f
5:04 9ft 8s 22 27 mph 1001.5mb 44f 44f
4:04 9ft 8s 27 31 mph 1001.5mb 44f 44f
3:04 9ft 8s 29 40 mph 1001.8mb 44f 45f
2:04 9.5ft 8s 27 34 mph 1003.3mb 45f 45f
1:04 8ft 8s 25 31 mph 1004.9mb 45f 46f
12:04 8ft 8s 25 31 mph 1005.5mb 45f 46f
Do 05/25 11:04 8ft 6s 25 29 mph 1006.8mb 44f 46f
10:04 8.5ft 6s 25 29 mph 1008.1mb 44f 47f
9:04 7ft 8s 25 29 mph 1008.7mb 45f 47f
8:04 6.5ft 8s 27 31 mph 1009.1mb 46f 48f
7:04 6.5ft 8s 27 31 mph 1009.2mb 46f 47f
6:04 5ft 8s 27 31 mph 1010.4mb 47f 48f
5:04 5ft 8s 25 27 mph 1011.1mb 47f 47f
4:04 5ft 8s 20 25 mph 1011.9mb 47f 48f
3:04 3.5ft 4s 22 27 mph 1012mb 47f 48f
2:04 4ft 8s 20 22 mph 1012.3mb 47f 48f
1:04 3.5ft 8s 20 22 mph 1012.6mb 47f 48f
12:04 4ft 11s 18 20 mph 1013.1mb 47f 47f
11:04 4ft 8s 16 18 mph 1013.5mb 47f 47f
10:04 4ft 11s 11 13 mph 1013.7mb 47f 48f
9:04 3.5ft 8s 11 13 mph 1013.7mb 47f 48f
8:04 4.5ft 8s 7 7 mph 1014.1mb 48f 48f
7:04 4ft 8s 7 7 mph 1014mb 48f 48f
6:04 3.5ft 8s 7 7 mph 1013.7mb 48f 48f
5:04 2.5ft 11s 7 7 mph 1013.1mb 49f 47f
4:04 2.5ft 8s 7 7 mph 1012.4mb 48f 47f
3:04 2.5ft 8s 4 4 mph 1012.3mb 48f 47f
2:04 2.5ft 8s 4 7 mph 1012.8mb 48f 47f
1:04 2.5ft 8s 4 4 mph 1012.4mb 48f 48f
12:04 3ft 8s  -  2 mph 1012mb 48f 49f
Mi 05/24 11:04 3ft 8s 2 2 mph 1011.9mb 48f 49f
10:04 3.5ft 6s 2 2 mph 1011.3mb 49f 49f
9:04 4.5ft 6s 2 4 mph 1010.8mb 49f 48f
8:04 4.5ft 8s 4 4 mph 1010.1mb 49f 49f
7:04 3.5ft 8s 2 4 mph 1010.6mb 49f 49f
6:04 3.5ft 8s 4 7 mph 1010.4mb 49f 49f
5:04 3ft 8s 9 9 mph 1009.2mb 49f 49f
4:04 2.5ft 8s 7 9 mph 1009.1mb 49f 50f
3:04 2.5ft 8s 7 9 mph 1009.5mb 49f 49f
2:04 2.5ft 8s 7 9 mph 1009.5mb 50f 50f
1:04 2.5ft 6s 7 7 mph 1009.1mb 50f 50f
12:04 2.5ft 6s 9 9 mph 1009.2mb 50f 52f
11:04 2.5ft 5s 9 9 mph 1008.9mb 49f 51f